Time;durP1;ratioP1;P1;durP2;ratioP2;P2;SDS_P1;SDS_P2;PMS_P1;PMS_P2;Temp;Humidity;BMP_temperature;BMP_pressure;BME280_temperature;BME280_humidity;BME280_pressure;Samples;Min_cycle;Max_cycle;Signal;HPM_P1;HPM_P2
2023/07/09 00:01:18;;;;;;;11.63;9.07;;;;;;;25.43;56.79;101583.50;5055316;28;20322;-73
2023/07/09 00:03:51;;;;;;;12.00;9.25;;;;;;;25.35;57.04;101572.94;5052350;28;20029;-74
2023/07/09 00:06:17;;;;;;;12.93;8.77;;;;;;;25.37;57.10;101574.28;5052975;28;20021;-73
2023/07/09 00:08:46;;;;;;;12.13;9.30;;;;;;;25.29;57.57;101577.97;5085162;28;20043;-73
2023/07/09 00:11:12;;;;;;;12.30;8.63;;;;;;;25.31;56.81;101580.47;5090309;28;20054;-73
2023/07/09 00:13:38;;;;;;;12.07;9.05;;;;;;;25.27;57.03;101576.63;5092492;28;20387;-73
2023/07/09 00:16:24;;;;;;;11.48;8.90;;;;;;;25.33;56.28;101581.00;5087270;28;20051;-73
2023/07/09 00:18:50;;;;;;;13.15;9.05;;;;;;;25.23;57.13;101587.88;5071049;28;20035;-73
2023/07/09 00:21:20;;;;;;;15.10;9.15;;;;;;;25.19;57.04;101584.84;5082678;28;20020;-73
2023/07/09 00:23:48;;;;;;;14.82;9.73;;;;;;;25.15;57.04;101592.38;5082379;28;20031;-73
2023/07/09 00:26:15;;;;;;;13.50;9.70;;;;;;;25.13;57.45;101588.19;5092789;28;20036;-73
2023/07/09 00:28:43;;;;;;;17.50;9.82;;;;;;;25.09;57.23;101590.84;5091747;28;20165;-73
2023/07/09 00:31:16;;;;;;;13.75;9.48;;;;;;;25.06;57.23;101596.34;5092917;28;20024;-73
2023/07/09 00:33:42;;;;;;;16.15;9.73;;;;;;;24.98;57.49;101592.31;5091811;28;20103;-73
2023/07/09 00:36:26;;;;;;;12.60;9.60;;;;;;;24.97;57.01;101593.50;5075385;28;20381;-73
2023/07/09 00:38:52;;;;;;;12.10;9.60;;;;;;;24.96;57.56;101597.50;5070068;28;20041;-73
2023/07/09 00:41:20;;;;;;;11.60;10.02;;;;;;;24.87;57.79;101603.16;5054743;28;20040;-73
2023/07/09 00:43:47;;;;;;;18.50;10.13;;;;;;;24.84;58.14;101603.03;5048965;28;20166;-73
2023/07/09 00:46:18;;;;;;;14.25;10.27;;;;;;;24.86;57.96;101600.66;5060435;28;20060;-73
2023/07/09 00:48:46;;;;;;;16.08;11.23;;;;;;;24.82;57.97;101602.50;5068081;28;20025;-73
2023/07/09 00:51:14;;;;;;;14.63;10.32;;;;;;;24.79;58.37;101600.31;5058781;28;20021;-73
2023/07/09 00:53:45;;;;;;;14.50;10.45;;;;;;;24.78;58.08;101605.16;5052290;28;20040;-73
2023/07/09 00:56:16;;;;;;;12.40;10.02;;;;;;;24.79;57.94;101606.00;5051031;28;20045;-73
2023/07/09 00:58:47;;;;;;;14.18;10.55;;;;;;;24.74;57.95;101602.16;5052102;28;20108;-73
2023/07/09 01:01:17;;;;;;;12.50;10.83;;;;;;;24.74;57.98;101601.31;5056695;28;20032;-73
2023/07/09 01:03:53;;;;;;;13.93;10.77;;;;;;;24.70;57.73;101606.81;5071224;28;20361;-73
2023/07/09 01:06:32;;;;;;;14.75;10.27;;;;;;;24.70;58.10;101600.31;5072813;28;20060;-73
2023/07/09 01:09:00;;;;;;;13.52;10.27;;;;;;;24.71;58.00;101599.13;5070170;28;20055;-73
2023/07/09 01:11:26;;;;;;;12.57;9.55;;;;;;;24.67;58.14;101598.97;5092044;28;20359;-73
2023/07/09 01:13:54;;;;;;;13.05;10.10;;;;;;;24.65;58.75;101594.78;5092145;28;20031;-72
2023/07/09 01:16:23;;;;;;;13.60;10.63;;;;;;;24.61;58.61;101590.94;5090761;28;20451;-72
2023/07/09 01:18:50;;;;;;;16.30;10.70;;;;;;;24.55;58.76;101590.25;5070695;28;20025;-72
2023/07/09 01:21:16;;;;;;;13.02;10.23;;;;;;;24.56;58.53;101591.09;5063676;28;20103;-73
2023/07/09 01:23:46;;;;;;;12.90;10.15;;;;;;;24.52;59.15;101590.91;5065768;28;20451;-73
2023/07/09 01:26:14;;;;;;;14.20;10.35;;;;;;;24.49;59.23;101589.59;5090116;28;20425;-73
2023/07/09 01:28:46;;;;;;;11.35;9.57;;;;;;;24.51;58.71;101599.75;5090693;28;20464;-72
2023/07/09 01:31:14;;;;;;;12.55;9.88;;;;;;;24.53;59.02;101594.59;5070279;28;20037;-73
2023/07/09 01:33:41;;;;;;;16.52;10.23;;;;;;;24.48;59.10;101592.72;5071713;28;20024;-73
2023/07/09 01:36:08;;;;;;;11.85;9.50;;;;;;;24.44;59.43;101594.56;5058205;28;20392;-72
2023/07/09 01:38:34;;;;;;;13.18;10.43;;;;;;;24.46;59.63;101603.59;5050436;28;20033;-73
2023/07/09 01:41:00;;;;;;;13.88;10.10;;;;;;;24.41;59.68;101607.41;5083119;28;20052;-73
2023/07/09 01:43:27;;;;;;;11.82;10.02;;;;;;;24.43;59.22;101592.88;5069707;28;20026;-73
2023/07/09 01:45:53;;;;;;;12.43;10.38;;;;;;;24.41;59.53;101601.75;5055497;28;20095;-73
2023/07/09 01:48:20;;;;;;;15.60;10.77;;;;;;;24.40;59.76;101607.72;5050791;28;20778;-74
2023/07/09 01:50:49;;;;;;;16.02;10.75;;;;;;;24.36;59.55;101610.34;5051307;28;20028;-73
2023/07/09 01:53:16;;;;;;;13.90;10.90;;;;;;;24.35;59.75;101605.03;5050735;28;20036;-72
2023/07/09 01:55:42;;;;;;;15.30;10.02;;;;;;;24.37;59.86;101606.38;5056304;28;20024;-72
2023/07/09 01:58:08;;;;;;;13.20;9.82;;;;;;;24.37;59.58;101612.06;5084286;28;20028;-73
2023/07/09 02:00:37;;;;;;;13.38;9.65;;;;;;;24.34;59.75;101618.38;5074625;28;20055;-73
2023/07/09 02:03:04;;;;;;;13.45;10.30;;;;;;;24.29;59.95;101615.69;5051051;28;20029;-73
2023/07/09 02:05:32;;;;;;;13.07;10.50;;;;;;;24.31;59.99;101618.19;5063476;28;20496;-73
2023/07/09 02:07:57;;;;;;;13.27;10.45;;;;;;;24.31;59.87;101619.03;5071071;28;20035;-73
2023/07/09 02:10:23;;;;;;;15.45;10.15;;;;;;;24.30;59.53;101622.19;5054907;28;20025;-73
2023/07/09 02:12:49;;;;;;;16.75;11.30;;;;;;;24.29;59.33;101626.19;5081408;28;20105;-72
2023/07/09 02:15:15;;;;;;;13.20;10.38;;;;;;;24.28;59.36;101618.84;5090994;28;20518;-72
2023/07/09 02:17:41;;;;;;;13.98;10.85;;;;;;;24.25;59.53;101620.34;5083582;28;20854;-73
2023/07/09 02:20:08;;;;;;;16.48;10.88;;;;;;;24.22;59.30;101619.00;5069079;28;20021;-73
2023/07/09 02:22:34;;;;;;;14.05;10.48;;;;;;;24.20;59.51;101623.31;5070838;28;20042;-73
2023/07/09 02:24:59;;;;;;;14.50;10.60;;;;;;;24.17;59.63;101613.47;5053015;28;20136;-73
2023/07/09 02:27:26;;;;;;;12.10;10.55;;;;;;;24.19;59.46;101613.97;5052325;28;20127;-73
2023/07/09 02:29:51;;;;;;;14.35;11.05;;;;;;;24.19;59.73;101616.81;5084221;28;20036;-73
2023/07/09 02:32:19;;;;;;;12.13;10.85;;;;;;;24.12;60.19;101610.75;5062065;28;20017;-73
2023/07/09 02:34:48;;;;;;;19.17;11.90;;;;;;;24.11;59.76;101614.75;5049534;28;20029;-72
2023/07/09 02:37:20;;;;;;;13.02;11.57;;;;;;;24.03;60.18;101609.91;5065274;28;20511;-73
2023/07/09 02:39:45;;;;;;;13.75;11.07;;;;;;;24.08;59.70;101612.56;5069209;28;20040;-73
2023/07/09 02:42:13;;;;;;;15.43;11.88;;;;;;;24.03;60.34;101611.91;5066286;28;20021;-73
2023/07/09 02:44:39;;;;;;;15.90;11.73;;;;;;;23.94;60.26;101618.38;5069774;28;20028;-73
2023/07/09 02:47:05;;;;;;;17.52;12.85;;;;;;;23.91;60.45;101616.16;5070894;28;20036;-73
2023/07/09 02:49:30;;;;;;;15.70;12.13;;;;;;;23.92;60.80;101617.00;5055681;28;20037;-72
2023/07/09 02:51:55;;;;;;;17.70;12.57;;;;;;;23.91;60.29;101615.34;5054173;28;20064;-73
2023/07/09 02:54:21;;;;;;;17.35;13.40;;;;;;;23.92;60.33;101611.34;5060001;28;20480;-73
2023/07/09 02:56:46;;;;;;;18.70;12.95;;;;;;;23.88;60.45;101616.81;5054153;28;20033;-73
2023/07/09 02:59:12;;;;;;;16.80;13.07;;;;;;;23.85;60.57;101620.28;5057204;28;20037;-73
2023/07/09 03:01:37;;;;;;;17.15;13.60;;;;;;;23.82;60.61;101617.28;5072327;28;20018;-73
2023/07/09 03:04:03;;;;;;;17.75;13.90;;;;;;;23.79;60.93;101612.28;5073006;28;20036;-73
2023/07/09 03:06:29;;;;;;;17.55;13.80;;;;;;;23.77;60.75;101612.56;5072740;28;20032;-73
2023/07/09 03:08:55;;;;;;;19.27;14.15;;;;;;;23.75;60.93;101612.91;5082957;28;20037;-73
2023/07/09 03:11:21;;;;;;;17.52;13.50;;;;;;;23.75;61.02;101614.91;5069774;28;20069;-73
2023/07/09 03:13:47;;;;;;;19.45;13.00;;;;;;;23.74;60.93;101622.59;5072971;28;20047;-73
2023/07/09 03:16:14;;;;;;;20.50;13.48;;;;;;;23.68;61.05;101611.69;5072744;28;20056;-72
2023/07/09 03:18:39;;;;;;;19.13;12.73;;;;;;;23.68;61.28;101615.34;5066364;28;20127;-73
2023/07/09 03:21:05;;;;;;;18.52;12.50;;;;;;;23.69;61.01;101608.53;5071076;28;20132;-73
2023/07/09 03:23:30;;;;;;;17.02;12.70;;;;;;;23.71;61.32;101611.88;5085241;28;20112;-73
2023/07/09 03:25:57;;;;;;;23.23;13.25;;;;;;;23.66;61.40;101614.88;5091353;28;20117;-73
2023/07/09 03:28:22;;;;;;;20.67;13.60;;;;;;;23.64;61.57;101611.47;5054941;28;20033;-73
2023/07/09 03:30:49;;;;;;;23.45;13.65;;;;;;;23.61;61.55;101617.78;5052471;28;20074;-72
2023/07/09 03:33:16;;;;;;;17.85;13.15;;;;;;;23.60;61.99;101615.28;5053797;28;20108;-73
2023/07/09 03:35:42;;;;;;;17.58;13.18;;;;;;;23.55;62.09;101616.25;5053885;28;20542;-72
2023/07/09 03:38:08;;;;;;;19.67;13.13;;;;;;;23.56;61.95;101611.41;5077867;28;20174;-73
2023/07/09 03:40:34;;;;;;;18.15;12.82;;;;;;;23.53;62.23;101610.06;5093280;28;20479;-73
2023/07/09 03:42:59;;;;;;;18.67;13.07;;;;;;;23.52;61.99;101608.38;5082026;28;20039;-73
2023/07/09 03:45:25;;;;;;;18.42;12.68;;;;;;;23.50;61.90;101610.69;5072406;28;20039;-73
2023/07/09 03:47:51;;;;;;;17.63;13.55;;;;;;;23.44;62.67;101615.66;5073459;28;20033;-72
2023/07/09 03:50:16;;;;;;;18.35;12.77;;;;;;;23.47;62.41;101617.03;5070400;28;20024;-72
2023/07/09 03:52:42;;;;;;;20.08;12.80;;;;;;;23.45;62.36;101613.66;5074236;28;20032;-73
2023/07/09 03:55:08;;;;;;;19.30;13.98;;;;;;;23.47;62.24;101617.03;5093798;28;20024;-73
2023/07/09 03:57:34;;;;;;;18.75;12.95;;;;;;;23.46;62.44;101609.66;5092121;28;20392;-73
2023/07/09 04:00:00;;;;;;;14.07;12.27;;;;;;;23.45;62.48;101608.00;5073687;28;20033;-73
2023/07/09 04:02:25;;;;;;;20.05;13.50;;;;;;;23.49;62.48;101611.84;5070503;28;20123;-73
2023/07/09 04:04:51;;;;;;;18.83;12.73;;;;;;;23.49;62.54;101615.53;5072329;28;20031;-73
2023/07/09 04:07:17;;;;;;;16.88;13.27;;;;;;;23.45;62.77;101608.00;5072263;28;20090;-73
2023/07/09 04:09:42;;;;;;;16.17;12.77;;;;;;;23.45;62.70;101613.66;5055425;28;20036;-73
2023/07/09 04:12:09;;;;;;;16.50;13.20;;;;;;;23.44;63.17;101604.34;5052190;28;20380;-73
2023/07/09 04:14:34;;;;;;;15.63;12.95;;;;;;;23.44;62.87;101614.84;5074768;28;20070;-73
2023/07/09 04:17:00;;;;;;;21.45;13.80;;;;;;;23.49;63.05;101617.53;5081557;28;20025;-73
2023/07/09 04:19:25;;;;;;;19.65;14.07;;;;;;;23.49;62.98;101612.69;5072188;28;20116;-73
2023/07/09 04:21:51;;;;;;;19.40;14.57;;;;;;;23.48;62.93;101618.69;5058920;28;20032;-73
2023/07/09 04:24:18;;;;;;;21.55;13.88;;;;;;;23.48;63.12;101613.03;5058198;28;20036;-73
2023/07/09 04:26:43;;;;;;;18.63;14.43;;;;;;;23.50;63.65;101616.34;5069262;28;20066;-73
2023/07/09 04:29:09;;;;;;;19.13;14.85;;;;;;;23.48;63.57;101613.03;5073059;28;20029;-73
2023/07/09 04:31:35;;;;;;;17.05;14.10;;;;;;;23.52;62.99;101619.72;5072300;28;20100;-73
2023/07/09 04:34:00;;;;;;;20.70;15.32;;;;;;;23.52;62.82;101622.56;5062723;28;20128;-73
2023/07/09 04:36:26;;;;;;;17.45;14.77;;;;;;;23.55;63.79;101618.25;5085840;28;20024;-73
2023/07/09 04:38:51;;;;;;;19.73;14.93;;;;;;;23.55;63.70;101615.41;5055432;28;20029;-73
2023/07/09 04:41:16;;;;;;;16.20;13.20;;;;;;;23.59;63.47;101611.59;5070885;28;20017;-73
2023/07/09 04:43:42;;;;;;;20.10;14.70;;;;;;;23.61;64.14;101617.78;5070887;28;20032;-73
2023/07/09 04:46:07;;;;;;;20.33;15.05;;;;;;;23.64;63.67;101613.47;5074376;28;20036;-73
2023/07/09 04:48:32;;;;;;;23.67;16.23;;;;;;;23.61;64.07;101614.94;5071067;28;20113;-73
2023/07/09 04:50:59;;;;;;;19.02;15.35;;;;;;;23.68;64.47;101604.03;5068057;28;20032;-73
2023/07/09 04:53:25;;;;;;;20.88;15.30;;;;;;;23.72;64.28;101602.22;5071920;28;20054;-73
2023/07/09 04:55:50;;;;;;;20.30;15.88;;;;;;;23.71;64.41;101605.38;5071462;28;20501;-73
2023/07/09 04:58:16;;;;;;;19.00;15.25;;;;;;;23.75;63.55;101607.25;5071049;28;20053;-73
2023/07/09 05:00:42;;;;;;;21.50;15.98;;;;;;;23.76;64.29;101614.56;5052860;28;20036;-72
2023/07/09 05:03:08;;;;;;;21.08;15.55;;;;;;;23.81;64.18;101613.59;5078083;28;20729;-73
2023/07/09 05:05:33;;;;;;;18.58;14.85;;;;;;;23.83;64.29;101607.63;5092006;28;20039;-73
2023/07/09 05:07:59;;;;;;;16.63;13.77;;;;;;;23.86;64.23;101606.97;5071359;28;20108;-73
2023/07/09 05:10:24;;;;;;;19.17;15.00;;;;;;;23.90;64.69;101613.66;5080622;28;20051;-73
2023/07/09 05:12:51;;;;;;;20.75;14.50;;;;;;;23.90;64.25;101610.84;5091675;28;20020;-73
2023/07/09 05:15:18;;;;;;;20.90;14.73;;;;;;;23.95;64.74;101613.53;5090921;28;20395;-72
2023/07/09 05:17:45;;;;;;;21.58;15.32;;;;;;;23.96;64.93;101606.69;5055316;28;20112;-73
2023/07/09 05:20:11;;;;;;;16.90;12.93;;;;;;;23.99;64.27;101608.88;5058313;28;20033;-72
2023/07/09 05:22:36;;;;;;;18.75;15.20;;;;;;;24.02;64.13;101611.06;5050798;28;20091;-73
2023/07/09 05:25:01;;;;;;;20.42;14.48;;;;;;;24.06;63.79;101614.91;5050993;28;20020;-73
2023/07/09 05:27:26;;;;;;;19.75;14.82;;;;;;;24.11;63.62;101608.25;5051716;28;20048;-73
2023/07/09 05:29:52;;;;;;;16.98;14.27;;;;;;;24.14;64.22;101613.28;5050625;28;20036;-73
2023/07/09 05:32:18;;;;;;;17.88;14.32;;;;;;;24.18;63.51;101606.63;5065056;28;20059;-73
2023/07/09 05:34:43;;;;;;;17.58;14.57;;;;;;;24.22;63.78;101609.66;5056040;28;20426;-73
2023/07/09 05:37:08;;;;;;;17.20;13.85;;;;;;;24.29;63.85;101609.16;5052943;28;20043;-73
2023/07/09 05:39:34;;;;;;;15.10;12.13;;;;;;;24.38;63.22;101608.06;5066855;28;20383;-73
2023/07/09 05:41:59;;;;;;;16.77;14.25;;;;;;;24.38;63.04;101607.22;5071532;28;20032;-73
2023/07/09 05:44:24;;;;;;;18.38;14.55;;;;;;;24.42;62.86;101611.09;5069897;28;20480;-73
2023/07/09 05:46:50;;;;;;;15.75;13.40;;;;;;;24.47;62.64;101606.09;5069707;28;20115;-73
2023/07/09 05:49:15;;;;;;;17.10;13.40;;;;;;;24.52;62.37;101610.78;5070768;28;20468;-73
2023/07/09 05:51:40;;;;;;;18.77;13.80;;;;;;;24.61;63.25;101613.66;5059078;28;20016;-74
2023/07/09 05:54:06;;;;;;;15.07;13.45;;;;;;;24.67;63.17;101615.16;5064655;28;20155;-74
2023/07/09 05:56:31;;;;;;;18.77;15.07;;;;;;;24.72;63.89;101617.88;5070934;28;20029;-73
2023/07/09 05:58:56;;;;;;;18.27;14.45;;;;;;;24.74;63.19;101616.34;5070493;28;20099;-73
2023/07/09 06:01:22;;;;;;;17.05;13.52;;;;;;;24.81;63.54;101615.03;5070570;28;20040;-73
2023/07/09 06:03:48;;;;;;;15.75;13.20;;;;;;;24.89;63.06;101619.88;5071118;28;20021;-73
2023/07/09 06:06:14;;;;;;;19.42;13.43;;;;;;;24.92;63.46;101617.22;5073033;28;20028;-74
2023/07/09 06:08:40;;;;;;;16.52;12.43;;;;;;;24.98;61.61;101617.88;5066857;28;20031;-74
2023/07/09 06:11:05;;;;;;;18.38;11.65;;;;;;;25.07;62.12;101630.06;5065009;28;22190;-73
2023/07/09 06:13:31;;;;;;;14.90;11.32;;;;;;;25.10;61.33;101620.09;5069658;28;20033;-74
2023/07/09 06:15:58;;;;;;;14.93;10.68;;;;;;;25.17;60.33;101626.94;5070259;28;20047;-73
2023/07/09 06:18:24;;;;;;;14.13;10.95;;;;;;;25.22;60.79;101628.78;5070114;28;20032;-74
2023/07/09 06:20:51;;;;;;;13.55;10.70;;;;;;;25.29;60.12;101620.59;5065708;28;20051;-75
2023/07/09 06:23:18;;;;;;;13.50;9.00;;;;;;;25.34;58.86;101625.28;5074147;28;20433;-74
2023/07/09 06:25:47;;;;;;;13.48;9.80;;;;;;;25.42;60.13;101630.13;5061131;28;20080;-74
2023/07/09 06:28:16;;;;;;;11.90;8.55;;;;;;;25.41;59.40;101625.63;5063429;28;20017;-73
2023/07/09 06:30:42;;;;;;;13.73;9.32;;;;;;;25.49;59.54;101627.63;5054803;28;20039;-74
2023/07/09 06:33:07;;;;;;;13.95;9.68;;;;;;;25.51;59.12;101625.28;5054138;28;20021;-74
2023/07/09 06:35:32;;;;;;;12.52;9.43;;;;;;;25.56;59.00;101622.25;5062007;28;20033;-73
2023/07/09 06:37:58;;;;;;;11.25;8.80;;;;;;;25.59;59.13;101623.59;5073276;28;20028;-73
2023/07/09 06:40:24;;;;;;;12.35;9.38;;;;;;;25.65;58.91;101625.91;5079268;28;20028;-75
2023/07/09 06:42:50;;;;;;;18.73;9.57;;;;;;;25.78;58.53;101632.63;5063534;28;20170;-73
2023/07/09 06:45:16;;;;;;;11.38;9.55;;;;;;;25.77;59.63;101624.41;5073813;28;20459;-74
2023/07/09 06:47:41;;;;;;;11.80;8.45;;;;;;;25.92;59.08;101624.72;5067763;28;20495;-73
2023/07/09 06:50:07;;;;;;;12.63;8.57;;;;;;;25.89;57.71;101627.41;5053841;28;20065;-74
2023/07/09 06:52:32;;;;;;;13.57;8.57;;;;;;;26.00;56.79;101617.34;5065023;28;20115;-74
2023/07/09 06:54:57;;;;;;;9.77;8.05;;;;;;;26.03;56.92;101627.22;5073494;28;20040;-74
2023/07/09 06:57:23;;;;;;;11.38;8.15;;;;;;;26.08;56.09;101627.03;5068373;28;20028;-73
2023/07/09 06:59:48;;;;;;;11.93;8.27;;;;;;;26.08;55.11;101633.53;5060091;28;20037;-73
2023/07/09 07:02:13;;;;;;;12.90;8.80;;;;;;;26.14;55.67;101629.34;5082991;28;20103;-73
2023/07/09 07:04:39;;;;;;;13.40;7.95;;;;;;;26.20;55.32;101627.13;5078851;28;20158;-73
2023/07/09 07:07:04;;;;;;;10.02;8.07;;;;;;;26.22;54.58;101632.50;5091605;28;20058;-73
2023/07/09 07:09:30;;;;;;;11.60;8.00;;;;;;;26.36;54.05;101633.94;5090648;28;20032;-75
2023/07/09 07:11:55;;;;;;;13.15;8.30;;;;;;;26.35;53.69;101634.28;5088467;28;20050;-73
2023/07/09 07:14:21;;;;;;;9.70;8.05;;;;;;;26.37;53.76;101626.22;5093908;28;20032;-72
2023/07/09 07:16:46;;;;;;;10.05;7.68;;;;;;;26.40;54.01;101629.22;5055527;28;20025;-72
2023/07/09 07:19:11;;;;;;;10.38;7.80;;;;;;;26.47;54.27;101642.97;5068799;28;20116;-72
2023/07/09 07:21:37;;;;;;;11.00;7.72;;;;;;;26.54;53.68;101631.88;5052342;28;20764;-73
2023/07/09 07:24:03;;;;;;;13.38;8.13;;;;;;;26.61;54.14;101643.56;5063211;28;20111;-72
2023/07/09 07:26:28;;;;;;;13.52;8.23;;;;;;;26.60;52.81;101636.19;5072790;28;20076;-72
2023/07/09 07:28:54;;;;;;;13.63;7.82;;;;;;;26.59;51.58;101642.22;5067826;28;20182;-72
2023/07/09 07:31:19;;;;;;;10.60;7.45;;;;;;;26.71;52.16;101641.50;5092560;28;20043;-73
2023/07/09 07:33:44;;;;;;;11.18;7.60;;;;;;;26.76;51.91;101638.44;5055613;28;20017;-73
2023/07/09 07:36:10;;;;;;;12.90;7.55;;;;;;;26.73;51.17;101636.31;5053303;28;20039;-74
2023/07/09 07:38:35;;;;;;;11.55;7.45;;;;;;;26.73;51.34;101637.13;5092587;28;20031;-73
2023/07/09 07:41:02;;;;;;;11.68;7.07;;;;;;;26.90;51.45;101636.19;5092459;28;20077;-73
2023/07/09 07:43:27;;;;;;;9.30;7.05;;;;;;;26.92;51.84;101636.69;5091472;28;20051;-75
2023/07/09 07:45:53;;;;;;;10.63;6.70;;;;;;;26.89;50.07;101629.66;5073833;28;20071;-72
2023/07/09 07:48:18;;;;;;;9.18;7.25;;;;;;;26.91;50.43;101624.44;5090820;28;20056;-72
2023/07/09 07:50:46;;;;;;;11.50;6.90;;;;;;;26.93;50.38;101632.66;5066650;28;20047;-71
2023/07/09 07:53:13;;;;;;;11.57;6.65;;;;;;;27.04;50.04;101633.91;5070149;28;20028;-71
2023/07/09 07:55:38;;;;;;;10.27;7.30;;;;;;;27.14;50.18;101638.38;5062890;28;20025;-72
2023/07/09 07:58:04;;;;;;;8.55;6.95;;;;;;;27.24;49.84;101635.13;5059706;28;20028;-70
2023/07/09 08:00:30;;;;;;;9.38;7.72;;;;;;;27.25;50.14;101633.09;5052180;28;20056;-71
2023/07/09 08:02:56;;;;;;;9.45;7.43;;;;;;;27.33;50.03;101635.06;5052321;28;20053;-72
2023/07/09 08:05:22;;;;;;;10.20;7.03;;;;;;;27.30;49.50;101630.03;5051272;28;20563;-71
2023/07/09 08:07:47;;;;;;;9.98;6.53;;;;;;;27.29;49.20;101628.38;5067752;28;20375;-72
2023/07/09 08:10:12;;;;;;;8.18;6.18;;;;;;;27.44;49.12;101632.63;5071376;28;20120;-73
2023/07/09 08:12:38;;;;;;;10.40;6.95;;;;;;;27.46;48.89;101631.06;5068796;28;20510;-72
2023/07/09 08:15:06;;;;;;;10.82;7.03;;;;;;;27.48;48.63;101625.03;5033455;28;1043392;-71
2023/07/09 08:17:31;;;;;;;11.43;6.88;;;;;;;27.51;48.84;101624.31;5072867;28;20031;-71
2023/07/09 08:19:56;;;;;;;12.88;7.43;;;;;;;27.55;48.75;101626.13;5070201;28;20021;-72
2023/07/09 08:22:22;;;;;;;11.07;7.55;;;;;;;27.59;49.09;101617.72;5068385;28;20057;-72
2023/07/09 08:24:48;;;;;;;8.02;7.03;;;;;;;27.65;49.07;101622.84;5063458;28;20377;-72
2023/07/09 08:27:14;;;;;;;8.35;6.20;;;;;;;27.71;49.43;101628.34;5065648;28;20039;-72
2023/07/09 08:29:41;;;;;;;9.20;6.70;;;;;;;27.81;49.25;101620.19;5052512;28;20021;-74
2023/07/09 08:32:08;;;;;;;9.10;6.85;;;;;;;27.86;49.01;101619.97;5059517;28;20020;-75
2023/07/09 08:34:33;;;;;;;9.40;6.70;;;;;;;27.94;48.73;101620.22;5066416;28;20039;-74
2023/07/09 08:36:58;;;;;;;10.23;6.80;;;;;;;28.00;49.11;101619.63;5070927;28;20024;-74
2023/07/09 08:39:24;;;;;;;9.05;6.63;;;;;;;28.09;47.84;101626.06;5063460;28;20227;-74
2023/07/09 08:42:03;;;;;;;10.82;7.15;;;;;;;27.98;48.64;101619.16;5057841;28;20043;-74
2023/07/09 08:44:31;;;;;;;10.20;7.25;;;;;;;28.09;48.65;101611.78;5059875;28;20503;-75
2023/07/09 08:47:12;;;;;;;8.73;6.97;;;;;;;28.09;48.68;101620.34;5060120;28;20036;-75
2023/07/09 08:50:06;;;;;;;10.48;7.32;;;;;;;28.16;48.84;101621.81;5072133;28;20029;-74
2023/07/09 08:52:36;;;;;;;11.60;7.22;;;;;;;28.21;48.75;101619.53;5057295;28;20094;-74
2023/07/09 08:55:07;;;;;;;9.82;7.80;;;;;;;28.17;47.77;101630.00;5062594;28;20028;-74
2023/07/09 08:57:38;;;;;;;9.35;7.45;;;;;;;28.22;48.07;101628.94;5072359;28;20024;-74
2023/07/09 09:00:19;;;;;;;11.85;6.82;;;;;;;28.42;48.27;101621.50;5072514;28;20078;-74
2023/07/09 09:02:52;;;;;;;10.05;7.55;;;;;;;28.44;48.24;101622.81;5051468;28;20029;-75
2023/07/09 09:05:21;;;;;;;11.68;7.10;;;;;;;28.43;48.00;101618.28;5073477;28;20032;-74
2023/07/09 09:07:54;;;;;;;13.73;7.65;;;;;;;28.48;48.74;101611.50;5091350;28;20028;-75
2023/07/09 09:10:36;;;;;;;14.18;7.78;;;;;;;28.45;47.59;101610.19;5092043;28;20032;-74
2023/07/09 09:13:10;;;;;;;9.77;7.63;;;;;;;28.48;47.71;101600.91;5092340;28;20077;-74
2023/07/09 09:15:39;;;;;;;11.95;7.47;;;;;;;28.50;47.62;101604.25;5088396;28;20449;-75
2023/07/09 09:18:18;;;;;;;8.70;7.30;;;;;;;28.59;47.84;101610.66;5069589;28;20032;-74
2023/07/09 09:20:52;;;;;;;12.20;7.72;;;;;;;28.74;47.94;101608.28;5075564;28;20036;-74
2023/07/09 09:23:18;;;;;;;10.02;7.38;;;;;;;28.72;48.04;101607.78;5079389;28;20674;-76
2023/07/09 09:25:53;;;;;;;10.95;6.90;;;;;;;28.79;48.45;101611.72;5075805;28;20032;-74
2023/07/09 09:28:19;;;;;;;11.70;7.22;;;;;;;28.97;48.42;101609.47;5070949;28;20024;-74
2023/07/09 09:30:44;;;;;;;10.40;8.00;;;;;;;28.86;46.96;101597.66;5071859;28;20027;-74
2023/07/09 09:33:13;;;;;;;10.40;6.95;;;;;;;28.91;47.89;101590.03;5059493;28;20009;-74
2023/07/09 09:35:43;;;;;;;13.00;7.38;;;;;;;29.03;46.71;101592.88;5050592;28;20040;-73
2023/07/09 09:38:17;;;;;;;9.95;6.78;;;;;;;29.10;48.16;101590.25;5051566;28;20814;-73
2023/07/09 09:40:43;;;;;;;10.82;6.80;;;;;;;29.19;47.46;101585.22;5051296;28;20071;-73
2023/07/09 09:43:13;;;;;;;11.75;7.13;;;;;;;29.32;47.32;101577.44;5049306;28;20049;-74
2023/07/09 09:45:40;;;;;;;11.38;6.88;;;;;;;29.23;46.24;101585.31;5051024;28;20037;-74
2023/07/09 09:48:26;;;;;;;11.65;6.45;;;;;;;29.26;46.08;101581.75;5070546;28;20107;-74
2023/07/09 09:50:52;;;;;;;7.22;6.50;;;;;;;29.39;46.48;101580.47;5072977;28;20499;-75
2023/07/09 09:53:23;;;;;;;7.57;6.43;;;;;;;29.33;45.63;101573.38;5070915;28;20017;-74
2023/07/09 09:55:49;;;;;;;11.35;6.53;;;;;;;29.45;45.31;101561.06;5052649;28;20028;-74
2023/07/09 09:58:16;;;;;;;10.23;6.90;;;;;;;29.59;44.55;101562.31;5057900;28;20020;-75
2023/07/09 10:00:49;;;;;;;8.65;7.10;;;;;;;29.53;45.23;101558.03;5078034;28;20366;-74
2023/07/09 10:03:14;;;;;;;9.00;6.40;;;;;;;29.65;45.29;101554.28;5049944;28;20112;-75
2023/07/09 10:05:44;;;;;;;10.15;6.68;;;;;;;29.76;45.33;101561.16;5067296;28;20127;-76
2023/07/09 10:08:54;;;;;;;14.23;6.80;;;;;;;29.72;45.67;101568.81;5067523;28;20036;-76
2023/07/09 10:11:46;;;;;;;8.93;6.32;;;;;;;29.83;44.82;101569.94;5055144;28;20147;-76
2023/07/09 10:14:25;;;;;;;9.95;6.30;;;;;;;29.83;45.21;101572.78;5071770;28;20032;-75
2023/07/09 10:16:58;;;;;;;9.98;7.07;;;;;;;30.06;44.56;101567.28;5067868;28;20029;-76
2023/07/09 10:19:29;;;;;;;10.60;7.25;;;;;;;30.10;44.95;101581.66;5059076;28;20036;-77
2023/07/09 10:22:05;;;;;;;11.38;7.97;;;;;;;30.00;44.98;101582.22;5079869;28;20168;-77
2023/07/09 10:24:42;;;;;;;11.23;7.63;;;;;;;30.07;44.90;101596.72;5087992;28;20020;-77
2023/07/09 10:27:09;;;;;;;9.35;6.80;;;;;;;30.06;44.36;101590.16;5089829;28;20464;-76
2023/07/09 10:29:34;;;;;;;7.85;6.85;;;;;;;30.19;44.32;101585.22;5079077;28;20024;-76
2023/07/09 10:32:42;;;;;;;9.23;6.35;;;;;;;30.19;45.24;101596.66;5067765;28;20380;-74
2023/07/09 10:35:21;;;;;;;9.32;6.70;;;;;;;30.17;43.98;101598.22;5060708;28;20062;-76
2023/07/09 10:38:04;;;;;;;10.95;6.47;;;;;;;30.32;44.30;101592.50;5058524;28;20028;-77
2023/07/09 10:40:43;;;;;;;11.32;7.10;;;;;;;30.43;44.60;101592.75;5062130;28;20082;-76
2023/07/09 10:43:16;;;;;;;9.73;6.55;;;;;;;30.53;43.50;101600.78;5082051;28;20031;-75
2023/07/09 10:45:46;;;;;;;8.02;6.20;;;;;;;30.60;44.43;101596.44;5064381;28;20051;-76
2023/07/09 10:48:17;;;;;;;8.52;6.18;;;;;;;30.67;44.17;101590.88;5087842;28;20019;-76
2023/07/09 10:50:51;;;;;;;9.32;6.18;;;;;;;30.67;43.35;101580.25;5087690;28;20044;-77
2023/07/09 10:53:49;;;;;;;8.85;5.68;;;;;;;30.71;43.04;101568.88;5087220;28;20085;-77
2023/07/09 10:56:24;;;;;;;8.18;6.20;;;;;;;30.68;43.00;101569.59;5062675;28;20072;-75
2023/07/09 10:59:04;;;;;;;11.73;6.10;;;;;;;30.80;43.67;101573.19;5066398;28;20032;-75
2023/07/09 11:01:39;;;;;;;9.65;5.93;;;;;;;30.69;43.56;101568.41;5054923;28;20040;-75
2023/07/09 11:04:14;;;;;;;8.45;6.35;;;;;;;30.66;43.04;101566.31;5048294;28;20021;-77
2023/07/09 11:06:46;;;;;;;12.48;5.70;;;;;;;30.60;42.62;101570.66;5045316;28;20060;-74
2023/07/09 11:09:30;;;;;;;6.90;5.90;;;;;;;30.63;43.17;101569.91;5051294;28;20143;-77
2023/07/09 11:11:59;;;;;;;8.55;5.43;;;;;;;30.71;42.92;101571.72;5051952;28;20112;-76
2023/07/09 11:14:35;;;;;;;8.43;5.70;;;;;;;30.68;43.33;101579.03;5067754;28;20123;-76
2023/07/09 11:17:02;;;;;;;8.00;5.70;;;;;;;30.70;42.47;101578.69;5071236;28;20165;-77
2023/07/09 11:19:28;;;;;;;8.52;5.38;;;;;;;30.77;42.18;101581.72;5071747;28;20025;-75